Nrc Patriot II — WDA8587 — position and weather

sailwx.info

Track history (hours):
 
Tides and Currents Weather Stations Pressure Air Temp Water Temp Dewpoint Dewpoint Depression Visibility Wind Speed Wind Dir Waves Ship Positions

Nrc Patriot II

Owner: National Response Corporation, HOUSTON, TX. More information available from US FCC via Universal Licensing System and Coast Guard Vessel Documentation Center.

Last reported at 2015-Mar-28 01:33 UTC. Time now 2015-Mar-28 01:48 UTC.
Position N 33°44' W 118°16'.

Length 30 m; draft 3.5 m.

Type: Port tender. MMSI: 366855940.

Date/timePositionNaut miles runAvg speedWind from/ knotsBaromVisibWave heightAir tempDewpointWater temp
2015-Mar-28 01:33N 33°44' W 118°16'0 0.2
2015-Mar-28 00:33N 33°44' W 118°16'0 0.0
2015-Mar-27 23:33N 33°44' W 118°16'0 0.0
2015-Mar-27 22:33N 33°44' W 118°16'0 0.0
2015-Mar-27 21:33N 33°44' W 118°16'0 0.0
2015-Mar-27 20:33N 33°44' W 118°16'0 0.0
2015-Mar-27 19:33N 33°44' W 118°16'0 0.0
2015-Mar-27 18:33N 33°44' W 118°16'0 0.0
2015-Mar-27 17:33N 33°44' W 118°16'0 0.0
2015-Mar-27 16:32N 33°44' W 118°16'0 0.0
2015-Mar-27 15:33N 33°44' W 118°16'0 0.0
2015-Mar-27 14:33N 33°44' W 118°16'0 0.0
2015-Mar-27 13:27N 33°44' W 118°16'0 0.0
2015-Mar-27 12:33N 33°44' W 118°16'0 0.0
2015-Mar-27 11:33N 33°44' W 118°16'0 0.0
2015-Mar-27 10:33N 33°44' W 118°16'0 0.0
2015-Mar-27 09:32N 33°44' W 118°16'0 0.0
2015-Mar-27 08:34N 33°44' W 118°16'0 0.0
2015-Mar-27 07:33N 33°44' W 118°16'0 0.0
2015-Mar-27 05:28N 33°44' W 118°16'0 0.0
2015-Mar-27 04:33N 33°44' W 118°16'8 7.9
2015-Mar-27 03:33N 33°38' W 118°10'0 0.4
2015-Mar-27 02:33N 33°38' W 118°10'8 8.2
2015-Mar-27 01:33N 33°44' W 118°16'0 0.0
2015-Mar-27 00:23N 33°44' W 118°16'0 0.3
2015-Mar-26 23:32N 33°44' W 118°16'6 6.6
2015-Mar-26 22:33N 33°38' W 118°12'5 5.1
2015-Mar-26 21:33N 33°35' W 118°08'1 1.3
2015-Mar-26 20:33N 33°34' W 118°07'0 0.0
2015-Mar-26 19:33N 33°34' W 118°07'0 0.0
2015-Mar-26 18:33N 33°34' W 118°07'0 0.2
2015-Mar-26 17:33N 33°34' W 118°07'1 1.3
2015-Mar-26 16:34N 33°35' W 118°08'6 5.7
2015-Mar-26 15:33N 33°40' W 118°12'6 5.9
2015-Mar-26 14:33N 33°44' W 118°16'0 0.1
2015-Mar-26 13:34N 33°44' W 118°16'0 0.0
2015-Mar-26 12:34N 33°44' W 118°16'0 0.0
2015-Mar-26 11:34N 33°44' W 118°16'0 0.0
2015-Mar-26 10:34N 33°44' W 118°16'0 0.0
2015-Mar-26 09:33N 33°44' W 118°16'0 0.0
2015-Mar-26 08:34N 33°44' W 118°16'0 0.0
2015-Mar-26 07:33N 33°44' W 118°16'0 0.0
2015-Mar-26 06:34N 33°44' W 118°16'0 0.0
2015-Mar-26 05:33N 33°44' W 118°16'0 0.0
2015-Mar-26 04:33N 33°44' W 118°16'0 0.0
2015-Mar-26 03:04N 33°44' W 118°16'0 0.0
2015-Mar-26 02:33N 33°44' W 118°16'0 0.0
2015-Mar-26 01:34N 33°44' W 118°16'0 0.0
2015-Mar-26 00:33N 33°44' W 118°16'0 0.0
2015-Mar-25 23:33N 33°44' W 118°16'0 0.0
2015-Mar-25 22:33N 33°44' W 118°16'0 0.0
2015-Mar-25 21:33N 33°44' W 118°16'0 0.0
2015-Mar-25 20:33N 33°44' W 118°16'0 0.0
2015-Mar-25 19:33N 33°44' W 118°16'0 0.0
2015-Mar-25 18:33N 33°44' W 118°16'0 0.0
2015-Mar-25 16:33N 33°44' W 118°16'0 0.0
2015-Mar-25 15:13N 33°44' W 118°16'0 0.0
2015-Mar-25 14:33N 33°44' W 118°16'0 0.0
2015-Mar-25 13:33N 33°44' W 118°16'0 0.0
2015-Mar-25 12:33N 33°44' W 118°16'0 0.0
2015-Mar-25 11:33N 33°44' W 118°16'0 0.0
2015-Mar-25 10:23N 33°44' W 118°16'0 0.0
2015-Mar-25 09:33N 33°44' W 118°16'0 0.0
2015-Mar-25 08:33N 33°44' W 118°16'0 0.0
2015-Mar-25 07:33N 33°44' W 118°16'0 0.0
2015-Mar-25 06:26N 33°44' W 118°16'0 0.0
2015-Mar-25 05:33N 33°44' W 118°16'0 0.0
2015-Mar-25 04:33N 33°44' W 118°16'0 0.0
2015-Mar-25 03:32N 33°44' W 118°16'0 0.0
2015-Mar-25 02:31N 33°44' W 118°16'0 0.0
2015-Mar-25 01:33N 33°44' W 118°16'0 0.0
2015-Mar-25 00:27N 33°44' W 118°16'0 0.0
2015-Mar-24 19:30N 33°44' W 118°16'0 0.0
2015-Mar-24 18:28N 33°44' W 118°16'12 1.2
2015-Mar-24 08:28N 33°35' W 118°08'0 0.1
2015-Mar-24 07:28N 33°35' W 118°08'12 5.2
2015-Mar-24 05:14N 33°44' W 118°16'0 0.0
2015-Mar-24 04:34N 33°44' W 118°16'0 0.0
2015-Mar-24 03:30N 33°44' W 118°16'1 0.6
2015-Mar-24 01:32N 33°43' W 118°16'9 8.6
2015-Mar-24 00:31N 33°36' W 118°09'2 1.5
2015-Mar-23 23:24N 33°35' W 118°08'0 0.0
2015-Mar-23 22:32N 33°35' W 118°08'9 1.7
2015-Mar-23 17:05N 33°42' W 118°14'2 0.4
2015-Mar-23 11:23N 33°44' W 118°16'12 1.2
2015-Mar-23 01:22N 33°35' W 118°08'0 0.3
2015-Mar-22 23:34N 33°35' W 118°07'0 0.5
2015-Mar-22 22:33N 33°35' W 118°08'12 1.6
2015-Mar-22 15:14N 33°44' W 118°16'12 1.3
2015-Mar-22 06:26N 33°35' W 118°08'0 0.0
2015-Mar-22 05:34N 33°35' W 118°08'0 0.0
2015-Mar-22 04:12N 33°35' W 118°08'12 1.7
2015-Mar-21 21:32N 33°44' W 118°16'0 0.0
2015-Mar-21 19:18N 33°44' W 118°16'0 0.0
2015-Mar-21 18:17N 33°44' W 118°16'0 0.0
2015-Mar-21 10:33N 33°44' W 118°16'10 7.2
2015-Mar-21 09:14N 33°36' W 118°10'2 2.9
2015-Mar-21 08:31N 33°35' W 118°08'0 0.2
2015-Mar-21 07:33N 33°35' W 118°08'0 0.0
2015-Mar-21 05:15N 33°35' W 118°08'0 0.0
2015-Mar-21 04:21N 33°35' W 118°08'5 5.7
2015-Mar-21 03:32N 33°38' W 118°11'7 6.6
2015-Mar-21 02:28N 33°44' W 118°16'0 0.1
2015-Mar-21 01:20N 33°44' W 118°16'0 0.1
2015-Mar-21 00:33N 33°44' W 118°16'0 0.0
2015-Mar-20 23:29N 33°44' W 118°16'0 0.0
2015-Mar-20 22:22N 33°44' W 118°16'0 0.0
2015-Mar-20 21:33N 33°44' W 118°16'0 0.0
2015-Mar-20 20:29N 33°44' W 118°16'0 0.0
2015-Mar-20 14:04N 33°44' W 118°16'0 0.0
2015-Mar-20 01:15N 33°44' W 118°16'1 1.7
2015-Mar-20 00:28N 33°43' W 118°16'910.1
2015-Mar-19 23:33N 33°36' W 118°09'1 0.4
2015-Mar-19 21:26N 33°35' W 118°08'0 0.0
2015-Mar-19 20:06N 33°35' W 118°08'12 3.2
2015-Mar-19 16:27N 33°44' W 118°16'2 0.2
2015-Mar-19 07:04N 33°43' W 118°15'10 5.9
2015-Mar-19 05:25N 33°35' W 118°08'0 0.0
2015-Mar-19 04:31N 33°35' W 118°08'0 0.1
2015-Mar-19 03:26N 33°35' W 118°08'9 8.6
2015-Mar-19 02:27N 33°41' W 118°14'3 0.4
2015-Mar-18 18:17N 33°44' W 118°16'0 0.0
2015-Mar-18 17:31N 33°44' W 118°16'0 0.0
2015-Mar-18 16:33N 33°44' W 118°16'12 1.1
2015-Mar-18 05:30N 33°35' W 118°08'0 0.1
2015-Mar-18 04:33N 33°35' W 118°08'8 6.4
2015-Mar-18 03:20N 33°41' W 118°14'4 4.6
2015-Mar-18 02:30N 33°44' W 118°16'  
Track history (hours):
 
Tides and Currents Weather Stations Pressure Air Temp Water Temp Dewpoint Dewpoint Depression Visibility Wind Speed Wind Dir Waves Ship Positions

Nrc Patriot II

Owner: National Response Corporation, HOUSTON, TX. More information available from US FCC via Universal Licensing System and Coast Guard Vessel Documentation Center.

Last reported at 2015-Mar-28 01:33 UTC. Time now 2015-Mar-28 01:48 UTC.
Position N 33°44' W 118°16'.

Length 30 m; draft 3.5 m.

Type: Port tender. MMSI: 366855940.

Date/timePositionNaut miles runAvg speedWind from/ knotsBaromVisibWave heightAir tempDewpointWater temp
2015-Mar-28 01:33N 33°44' W 118°16'0 0.2
2015-Mar-28 00:33N 33°44' W 118°16'0 0.0
2015-Mar-27 23:33N 33°44' W 118°16'0 0.0
2015-Mar-27 22:33N 33°44' W 118°16'0 0.0
2015-Mar-27 21:33N 33°44' W 118°16'0 0.0
2015-Mar-27 20:33N 33°44' W 118°16'0 0.0
2015-Mar-27 19:33N 33°44' W 118°16'0 0.0
2015-Mar-27 18:33N 33°44' W 118°16'0 0.0
2015-Mar-27 17:33N 33°44' W 118°16'0 0.0
2015-Mar-27 16:32N 33°44' W 118°16'0 0.0
2015-Mar-27 15:33N 33°44' W 118°16'0 0.0
2015-Mar-27 14:33N 33°44' W 118°16'0 0.0
2015-Mar-27 13:27N 33°44' W 118°16'0 0.0
2015-Mar-27 12:33N 33°44' W 118°16'0 0.0
2015-Mar-27 11:33N 33°44' W 118°16'0 0.0
2015-Mar-27 10:33N 33°44' W 118°16'0 0.0
2015-Mar-27 09:32N 33°44' W 118°16'0 0.0
2015-Mar-27 08:34N 33°44' W 118°16'0 0.0
2015-Mar-27 07:33N 33°44' W 118°16'0 0.0
2015-Mar-27 05:28N 33°44' W 118°16'0 0.0
2015-Mar-27 04:33N 33°44' W 118°16'8 7.9
2015-Mar-27 03:33N 33°38' W 118°10'0 0.4
2015-Mar-27 02:33N 33°38' W 118°10'8 8.2
2015-Mar-27 01:33N 33°44' W 118°16'0 0.0
2015-Mar-27 00:23N 33°44' W 118°16'0 0.3
2015-Mar-26 23:32N 33°44' W 118°16'6 6.6
2015-Mar-26 22:33N 33°38' W 118°12'5 5.1
2015-Mar-26 21:33N 33°35' W 118°08'1 1.3
2015-Mar-26 20:33N 33°34' W 118°07'0 0.0
2015-Mar-26 19:33N 33°34' W 118°07'0 0.0
2015-Mar-26 18:33N 33°34' W 118°07'0 0.2
2015-Mar-26 17:33N 33°34' W 118°07'1 1.3
2015-Mar-26 16:34N 33°35' W 118°08'6 5.7
2015-Mar-26 15:33N 33°40' W 118°12'6 5.9
2015-Mar-26 14:33N 33°44' W 118°16'0 0.1
2015-Mar-26 13:34N 33°44' W 118°16'0 0.0
2015-Mar-26 12:34N 33°44' W 118°16'0 0.0
2015-Mar-26 11:34N 33°44' W 118°16'0 0.0
2015-Mar-26 10:34N 33°44' W 118°16'0 0.0
2015-Mar-26 09:33N 33°44' W 118°16'0 0.0
2015-Mar-26 08:34N 33°44' W 118°16'0 0.0
2015-Mar-26 07:33N 33°44' W 118°16'0 0.0
2015-Mar-26 06:34N 33°44' W 118°16'0 0.0
2015-Mar-26 05:33N 33°44' W 118°16'0 0.0
2015-Mar-26 04:33N 33°44' W 118°16'0 0.0
2015-Mar-26 03:04N 33°44' W 118°16'0 0.0
2015-Mar-26 02:33N 33°44' W 118°16'0 0.0
2015-Mar-26 01:34N 33°44' W 118°16'0 0.0
2015-Mar-26 00:33N 33°44' W 118°16'0 0.0
2015-Mar-25 23:33N 33°44' W 118°16'0 0.0
2015-Mar-25 22:33N 33°44' W 118°16'0 0.0
2015-Mar-25 21:33N 33°44' W 118°16'0 0.0
2015-Mar-25 20:33N 33°44' W 118°16'0 0.0
2015-Mar-25 19:33N 33°44' W 118°16'0 0.0
2015-Mar-25 18:33N 33°44' W 118°16'0 0.0
2015-Mar-25 16:33N 33°44' W 118°16'0 0.0
2015-Mar-25 15:13N 33°44' W 118°16'0 0.0
2015-Mar-25 14:33N 33°44' W 118°16'0 0.0
2015-Mar-25 13:33N 33°44' W 118°16'0 0.0
2015-Mar-25 12:33N 33°44' W 118°16'0 0.0
2015-Mar-25 11:33N 33°44' W 118°16'0 0.0
2015-Mar-25 10:23N 33°44' W 118°16'0 0.0
2015-Mar-25 09:33N 33°44' W 118°16'0 0.0
2015-Mar-25 08:33N 33°44' W 118°16'0 0.0
2015-Mar-25 07:33N 33°44' W 118°16'0 0.0
2015-Mar-25 06:26N 33°44' W 118°16'0 0.0
2015-Mar-25 05:33N 33°44' W 118°16'0 0.0
2015-Mar-25 04:33N 33°44' W 118°16'0 0.0
2015-Mar-25 03:32N 33°44' W 118°16'0 0.0
2015-Mar-25 02:31N 33°44' W 118°16'0 0.0
2015-Mar-25 01:33N 33°44' W 118°16'0 0.0
2015-Mar-25 00:27N 33°44' W 118°16'0 0.0
2015-Mar-24 19:30N 33°44' W 118°16'0 0.0
2015-Mar-24 18:28N 33°44' W 118°16'12 1.2
2015-Mar-24 08:28N 33°35' W 118°08'0 0.1
2015-Mar-24 07:28N 33°35' W 118°08'12 5.2
2015-Mar-24 05:14N 33°44' W 118°16'0 0.0
2015-Mar-24 04:34N 33°44' W 118°16'0 0.0
2015-Mar-24 03:30N 33°44' W 118°16'1 0.6
2015-Mar-24 01:32N 33°43' W 118°16'9 8.6
2015-Mar-24 00:31N 33°36' W 118°09'2 1.5
2015-Mar-23 23:24N 33°35' W 118°08'0 0.0
2015-Mar-23 22:32N 33°35' W 118°08'9 1.7
2015-Mar-23 17:05N 33°42' W 118°14'2 0.4
2015-Mar-23 11:23N 33°44' W 118°16'12 1.2
2015-Mar-23 01:22N 33°35' W 118°08'0 0.3
2015-Mar-22 23:34N 33°35' W 118°07'0 0.5
2015-Mar-22 22:33N 33°35' W 118°08'12 1.6
2015-Mar-22 15:14N 33°44' W 118°16'12 1.3
2015-Mar-22 06:26N 33°35' W 118°08'0 0.0
2015-Mar-22 05:34N 33°35' W 118°08'0 0.0
2015-Mar-22 04:12N 33°35' W 118°08'12 1.7
2015-Mar-21 21:32N 33°44' W 118°16'0 0.0
2015-Mar-21 19:18N 33°44' W 118°16'0 0.0
2015-Mar-21 18:17N 33°44' W 118°16'0 0.0
2015-Mar-21 10:33N 33°44' W 118°16'10 7.2
2015-Mar-21 09:14N 33°36' W 118°10'2 2.9
2015-Mar-21 08:31N 33°35' W 118°08'0 0.2
2015-Mar-21 07:33N 33°35' W 118°08'0 0.0
2015-Mar-21 05:15N 33°35' W 118°08'0 0.0
2015-Mar-21 04:21N 33°35' W 118°08'5 5.7
2015-Mar-21 03:32N 33°38' W 118°11'7 6.6
2015-Mar-21 02:28N 33°44' W 118°16'0 0.1
2015-Mar-21 01:20N 33°44' W 118°16'0 0.1
2015-Mar-21 00:33N 33°44' W 118°16'0 0.0
2015-Mar-20 23:29N 33°44' W 118°16'0 0.0
2015-Mar-20 22:22N 33°44' W 118°16'0 0.0
2015-Mar-20 21:33N 33°44' W 118°16'0 0.0
2015-Mar-20 20:29N 33°44' W 118°16'0 0.0
2015-Mar-20 14:04N 33°44' W 118°16'0 0.0
2015-Mar-20 01:15N 33°44' W 118°16'1 1.7
2015-Mar-20 00:28N 33°43' W 118°16'910.1
2015-Mar-19 23:33N 33°36' W 118°09'1 0.4
2015-Mar-19 21:26N 33°35' W 118°08'0 0.0
2015-Mar-19 20:06N 33°35' W 118°08'12 3.2
2015-Mar-19 16:27N 33°44' W 118°16'2 0.2
2015-Mar-19 07:04N 33°43' W 118°15'10 5.9
2015-Mar-19 05:25N 33°35' W 118°08'0 0.0
2015-Mar-19 04:31N 33°35' W 118°08'0 0.1
2015-Mar-19 03:26N 33°35' W 118°08'9 8.6
2015-Mar-19 02:27N 33°41' W 118°14'3 0.4
2015-Mar-18 18:17N 33°44' W 118°16'0 0.0
2015-Mar-18 17:31N 33°44' W 118°16'0 0.0
2015-Mar-18 16:33N 33°44' W 118°16'12 1.1
2015-Mar-18 05:30N 33°35' W 118°08'0 0.1
2015-Mar-18 04:33N 33°35' W 118°08'8 6.4
2015-Mar-18 03:20N 33°41' W 118°14'4 4.6
2015-Mar-18 02:30N 33°44' W 118°16'  

Dump ship's entire track history